KDUH

Toledo Suburban Airport

Lambertville, Michigan, USA
METAR KDUH 181256Z AUTO 00000KT 10SM BKN019 M06/M07 A3026 RMK AO2 T10621071
Observed Flight Rules
Dec-18 @ 12:56 UTC (12 minutes ago) Marginal Visual Flight Rules
Visibility Clouds
10 miles
  • Broken at 1,900' AGL
Temperatures Readings
Current -6°C / 21°F
Dewpoint -7°C / 19°F
Humidity 93%
Altimeter 30.26" Hg
Pressure 1025 hPa
Elevation 204
METAR KDUH 181256Z AUTO 00000KT 10SM BKN019 M06/M07 A3026 RMK AO2 T10621071
Observed Flight Rules
Dec-18 @ 12:56 UTC
(12 minutes ago)
MVFR
Clouds
  • Broken at 1,900' AGL
Temperature Dewpoint
-6°C / 21°F -7°C / 19°F
Humidity Altimeter Pressure
93% 30.26" Hg 1025 hPa